Time;durP1;ratioP1;P1;durP2;ratioP2;P2;SDS_P1;SDS_P2;PMS_P1;PMS_P2;Temp;Humidity;BMP_temperature;BMP_pressure;BME280_temperature;BME280_humidity;BME280_pressure;Samples;Min_cycle;Max_cycle;Signal;HPM_P1;HPM_P2
2022/11/10 00:01:47;;;;;;;0.10;0.10;;;;;;;8.62;100.00;101601.88;4993124;28;20109;-76
2022/11/10 00:04:12;;;;;;;0.20;0.20;;;;;;;8.58;100.00;101605.69;4997367;28;20076;-76
2022/11/10 00:06:39;;;;;;;0.10;0.10;;;;;;;8.70;100.00;101610.34;5005682;28;20029;-77
2022/11/10 00:09:05;;;;;;;0.10;0.10;;;;;;;8.49;100.00;101591.88;4991891;28;20041;-74
2022/11/10 00:11:30;;;;;;;0.15;0.15;;;;;;;8.82;100.00;101632.88;4984706;28;20030;-76
2022/11/10 00:19:24;;;;;;;0.10;0.10;;;;;;;8.58;100.00;101617.28;4997791;28;20096;-74
2022/11/10 00:21:49;;;;;;;0.20;0.20;;;;;;;8.64;100.00;101624.06;4993303;28;20026;-74
2022/11/10 00:24:15;;;;;;;0.10;0.10;;;;;;;8.73;100.00;101628.91;4983356;28;20052;-75
2022/11/10 00:26:40;;;;;;;0.10;0.10;;;;;;;8.60;100.00;101622.53;4983737;28;20030;-76
2022/11/10 00:29:05;;;;;;;0.10;0.10;;;;;;;8.55;100.00;101622.78;4996342;28;20095;-78
2022/11/10 00:31:31;;;;;;;0.10;0.10;;;;;;;8.50;100.00;101624.88;4982411;28;20053;-77
2022/11/10 00:33:56;;;;;;;0.10;0.10;;;;;;;8.63;100.00;101641.94;4997725;28;20061;-78
2022/11/10 00:36:22;;;;;;;0.10;0.10;;;;;;;8.69;100.00;101646.09;5002931;28;20067;-77
2022/11/10 00:38:51;;;;;;;0.10;0.10;;;;;;;8.53;100.00;101643.44;5001983;28;20029;-76
2022/11/10 00:41:16;;;;;;;0.10;0.10;;;;;;;8.49;100.00;101631.16;4996473;28;20642;-75
2022/11/10 00:43:41;;;;;;;0.10;0.10;;;;;;;8.73;100.00;101628.03;4994362;28;20116;-75
2022/11/10 00:46:07;;;;;;;0.10;0.10;;;;;;;8.74;100.00;101643.16;4999620;28;20034;-77
2022/11/10 00:48:32;;;;;;;0.10;0.10;;;;;;;8.63;100.00;101652.66;4993888;28;20472;-74
2022/11/10 00:50:58;;;;;;;0.10;0.10;;;;;;;8.66;100.00;101652.47;4995332;28;20025;-76
2022/11/10 00:53:23;;;;;;;0.10;0.10;;;;;;;8.51;100.00;101650.69;5001046;28;20033;-75
2022/11/10 00:55:49;;;;;;;0.10;0.10;;;;;;;8.60;100.00;101641.25;4981831;28;20030;-74
2022/11/10 00:58:14;;;;;;;0.10;0.10;;;;;;;8.70;100.00;101666.56;4978482;28;20040;-75
2022/11/10 01:00:40;;;;;;;0.10;0.10;;;;;;;8.65;100.00;101664.13;4975561;28;20041;-74
2022/11/10 01:03:06;;;;;;;0.10;0.10;;;;;;;8.68;100.00;101655.09;4995367;28;20032;-74
2022/11/10 01:05:36;;;;;;;0.10;0.10;;;;;;;8.77;100.00;101667.06;4980969;28;20021;-78
2022/11/10 01:08:01;;;;;;;0.10;0.10;;;;;;;8.62;100.00;101652.75;5014058;28;20133;-75
2022/11/10 01:10:26;;;;;;;0.17;0.17;;;;;;;8.57;100.00;101652.13;4990699;28;20022;-75
2022/11/10 01:12:52;;;;;;;0.10;0.10;;;;;;;8.53;100.00;101646.09;4989838;28;20026;-77
2022/11/10 01:15:19;;;;;;;0.10;0.10;;;;;;;8.59;100.00;101675.22;4980292;28;20041;-74
2022/11/10 01:17:44;;;;;;;0.20;0.20;;;;;;;8.69;100.00;101687.13;4994633;28;20075;-80
2022/11/10 01:20:10;;;;;;;0.10;0.10;;;;;;;8.75;100.00;101690.41;4980593;28;20723;-74
2022/11/10 01:22:35;;;;;;;0.10;0.10;;;;;;;8.59;100.00;101674.34;4979302;28;20084;-75
2022/11/10 01:25:00;;;;;;;0.10;0.10;;;;;;;8.54;100.00;101672.78;4989153;28;20026;-78
2022/11/10 01:27:26;;;;;;;0.10;0.10;;;;;;;8.58;100.00;101678.84;4995777;28;20022;-75
2022/11/10 01:29:51;;;;;;;0.10;0.10;;;;;;;8.65;100.00;101711.47;4984953;28;20059;-76
2022/11/10 01:32:17;;;;;;;0.10;0.10;;;;;;;8.36;100.00;101674.63;4990200;28;20076;-74
2022/11/10 01:34:42;;;;;;;0.10;0.10;;;;;;;8.54;100.00;101701.38;4988053;28;20795;-74
2022/11/10 01:37:08;;;;;;;0.17;0.17;;;;;;;8.51;100.00;101709.56;4999672;28;20025;-74
2022/11/10 01:39:33;;;;;;;0.20;0.20;;;;;;;8.44;100.00;101698.31;5000392;28;20056;-76
2022/11/10 01:41:58;;;;;;;0.10;0.10;;;;;;;8.55;100.00;101711.97;5002132;28;20053;-75
2022/11/10 01:44:24;;;;;;;0.10;0.10;;;;;;;8.57;100.00;101727.09;5003078;28;20126;-75
2022/11/10 01:46:50;;;;;;;0.10;0.10;;;;;;;8.59;100.00;101709.13;5001171;28;20014;-75
2022/11/10 01:49:18;;;;;;;0.15;0.15;;;;;;;8.75;100.00;101719.84;4994302;28;20492;-78
2022/11/10 01:52:17;;;;;;;0.20;0.20;;;;;;;8.69;100.00;101713.03;4998343;28;20026;-77
2022/11/10 01:54:45;;;;;;;0.13;0.13;;;;;;;8.47;100.00;101697.25;4992985;28;20623;-72
2022/11/10 01:57:12;;;;;;;0.10;0.10;;;;;;;8.49;100.00;101701.59;5002417;28;20411;-74
2022/11/10 01:59:40;;;;;;;0.10;0.10;;;;;;;8.40;100.00;101691.38;5004917;28;20064;-75
2022/11/10 02:02:11;;;;;;;0.10;0.10;;;;;;;8.54;100.00;101715.59;5000492;28;20465;-76
2022/11/10 02:04:37;;;;;;;0.10;0.10;;;;;;;8.57;100.00;101714.59;5005647;28;20068;-72
2022/11/10 02:07:03;;;;;;;0.10;0.10;;;;;;;8.59;100.00;101710.00;5005603;28;20034;-74
2022/11/10 02:09:28;;;;;;;0.10;0.10;;;;;;;8.42;100.00;101694.84;4998750;28;20030;-74
2022/11/10 02:11:54;;;;;;;0.10;0.10;;;;;;;8.38;100.00;101699.47;4997672;28;20028;-78
2022/11/10 02:14:19;;;;;;;0.10;0.10;;;;;;;8.51;100.00;101721.13;4999073;28;20034;-73
2022/11/10 02:16:45;;;;;;;0.20;0.20;;;;;;;8.46;100.00;101719.63;4998481;28;20065;-75
2022/11/10 02:19:22;;;;;;;0.10;0.10;;;;;;;8.48;100.00;101725.75;5017330;28;20034;-75
2022/11/10 02:21:47;;;;;;;0.20;0.20;;;;;;;8.23;100.00;101687.81;4998507;28;20030;-74
2022/11/10 02:24:13;;;;;;;0.10;0.10;;;;;;;8.41;100.00;101743.97;5001065;28;20420;-75
2022/11/10 02:26:44;;;;;;;0.15;0.15;;;;;;;8.22;100.00;101715.50;4996607;28;20813;-77
2022/11/10 02:29:10;;;;;;;0.10;0.10;;;;;;;8.29;100.00;101728.56;4997679;28;20022;-74
2022/11/10 02:31:35;;;;;;;0.20;0.20;;;;;;;8.21;100.00;101751.22;4998828;28;20041;-79
2022/11/10 02:34:00;;;;;;;0.10;0.10;;;;;;;8.35;100.00;101745.13;4982054;28;20050;-74
2022/11/10 02:36:25;;;;;;;0.17;0.17;;;;;;;8.31;100.00;101742.72;4995984;28;20483;-76
2022/11/10 02:38:51;;;;;;;0.20;0.20;;;;;;;8.36;100.00;101744.19;4994892;28;20116;-73
2022/11/10 02:41:16;;;;;;;0.10;0.10;;;;;;;8.29;100.00;101731.25;4997777;28;20037;-73
2022/11/10 02:43:41;;;;;;;0.20;0.20;;;;;;;8.37;100.00;101737.91;4997509;28;20117;-74
2022/11/10 02:46:07;;;;;;;0.10;0.10;;;;;;;8.39;100.00;101757.41;4998087;28;20026;-75
2022/11/10 02:48:32;;;;;;;0.10;0.10;;;;;;;8.31;100.00;101732.03;5009547;28;20105;-73
2022/11/10 02:50:57;;;;;;;0.10;0.10;;;;;;;8.21;100.00;101737.84;4997636;28;20531;-76
2022/11/10 02:53:23;;;;;;;0.10;0.10;;;;;;;8.45;100.00;101763.38;4996222;28;20476;-76
2022/11/10 02:55:48;;;;;;;0.10;0.10;;;;;;;8.30;100.00;101746.34;4993549;28;20034;-75
2022/11/10 02:58:13;;;;;;;0.10;0.10;;;;;;;8.34;100.00;101754.13;4998034;28;20368;-75
2022/11/10 03:00:39;;;;;;;0.10;0.10;;;;;;;8.38;100.00;101771.75;4996220;28;20053;-76
2022/11/10 03:03:04;;;;;;;0.10;0.10;;;;;;;8.40;100.00;101763.66;4980453;28;20490;-75
2022/11/10 03:05:30;;;;;;;0.10;0.10;;;;;;;8.30;100.00;101757.94;4994470;28;20041;-76
2022/11/10 03:07:59;;;;;;;0.10;0.10;;;;;;;8.16;100.00;101739.06;4990280;28;20389;-76
2022/11/10 03:10:25;;;;;;;0.20;0.20;;;;;;;8.29;100.00;101760.66;4983555;28;20117;-74
2022/11/10 03:12:58;;;;;;;0.10;0.10;;;;;;;8.34;100.00;101772.00;4996546;28;20034;-74
2022/11/10 03:15:23;;;;;;;0.10;0.10;;;;;;;8.17;100.00;101756.84;4998599;28;20029;-75
2022/11/10 03:17:49;;;;;;;0.10;0.10;;;;;;;8.19;100.00;101760.28;4996386;28;20384;-75
2022/11/10 03:20:15;;;;;;;0.10;0.10;;;;;;;8.23;100.00;101768.06;5001722;28;20034;-73
2022/11/10 03:22:40;;;;;;;0.10;0.10;;;;;;;8.17;100.00;101770.22;5001139;28;20760;-75
2022/11/10 03:25:06;;;;;;;0.10;0.10;;;;;;;8.21;100.00;101782.47;4996311;28;20237;-75
2022/11/10 03:27:31;;;;;;;0.17;0.17;;;;;;;8.29;100.00;101801.69;4995435;28;20121;-77
2022/11/10 03:29:57;;;;;;;0.20;0.20;;;;;;;8.13;100.00;101785.56;5010030;28;20468;-75
2022/11/10 03:32:22;;;;;;;0.10;0.10;;;;;;;8.19;100.00;101817.34;4980692;28;20543;-74
2022/11/10 03:34:47;;;;;;;0.10;0.10;;;;;;;8.09;100.00;101802.72;4996593;28;20424;-74
2022/11/10 03:37:12;;;;;;;0.10;0.10;;;;;;;8.10;100.00;101783.91;5018600;22;20875;-72
2022/11/10 03:39:38;;;;;;;0.10;0.10;;;;;;;7.99;100.00;101790.75;5002801;28;20140;-73
2022/11/10 03:42:04;;;;;;;0.10;0.10;;;;;;;8.11;100.00;101795.47;5001991;28;20069;-75
2022/11/10 03:44:29;;;;;;;0.10;0.10;;;;;;;8.06;100.00;101793.06;5002386;28;20025;-73
2022/11/10 03:46:54;;;;;;;0.10;0.10;;;;;;;8.05;100.00;101801.16;5000617;28;20144;-79
2022/11/10 03:49:20;;;;;;;0.10;0.10;;;;;;;8.07;100.00;101794.78;4999046;28;21755;-77
2022/11/10 03:51:45;;;;;;;0.10;0.10;;;;;;;8.08;100.00;101812.53;5002092;28;20076;-75
2022/11/10 03:54:10;;;;;;;0.10;0.10;;;;;;;8.25;100.00;101835.75;5001386;28;20033;-75
2022/11/10 03:56:35;;;;;;;0.20;0.20;;;;;;;8.13;100.00;101840.88;4999033;28;20495;-75
2022/11/10 03:59:01;;;;;;;0.10;0.10;;;;;;;8.19;100.00;101844.09;4984562;28;20128;-75
2022/11/10 04:01:26;;;;;;;0.10;0.10;;;;;;;8.15;100.00;101841.66;5003665;28;20065;-75
2022/11/10 04:03:51;;;;;;;0.10;0.10;;;;;;;8.06;100.00;101835.84;5007690;28;20069;-77
2022/11/10 04:09:01;;;;;;;0.20;0.20;;;;;;;8.17;100.00;101834.41;4999862;28;20104;-73
2022/11/10 04:16:56;;;;;;;;;;;;;;;7.96;100.00;101867.53;4999095;28;20072;-76
2022/11/10 04:19:21;;;;;;;0.10;0.10;;;;;;;7.90;100.00;101850.94;4999432;28;20414;-75
2022/11/10 04:21:47;;;;;;;0.10;0.10;;;;;;;8.10;100.00;101882.88;5015678;28;20041;-72
2022/11/10 04:24:12;;;;;;;0.10;0.10;;;;;;;8.10;100.00;101888.22;4998739;28;20534;-75
2022/11/10 04:26:39;;;;;;;0.20;0.20;;;;;;;8.01;100.00;101891.38;4999353;28;20033;-74
2022/11/10 04:29:07;;;;;;;0.13;0.13;;;;;;;8.16;100.00;101900.44;5000996;28;20345;-77
2022/11/10 04:31:36;;;;;;;0.10;0.10;;;;;;;7.99;100.00;101903.97;5017182;28;20022;-77
2022/11/10 04:34:02;;;;;;;0.10;0.10;;;;;;;7.99;100.00;101903.97;4999262;28;20041;-74
2022/11/10 04:36:29;;;;;;;0.10;0.10;;;;;;;7.88;100.00;101907.19;4998770;28;20037;-75
2022/11/10 04:38:55;;;;;;;0.20;0.20;;;;;;;8.09;100.00;101934.63;5002648;28;20032;-74
2022/11/10 04:41:21;;;;;;;0.10;0.10;;;;;;;8.07;100.00;101936.56;5005020;28;20026;-77
2022/11/10 04:43:46;;;;;;;0.15;0.15;;;;;;;8.18;100.00;101932.47;5001627;28;20455;-75
2022/11/10 04:46:23;;;;;;;0.10;0.10;;;;;;;8.18;100.00;101940.47;5002297;28;20041;-74
2022/11/10 04:48:49;;;;;;;0.10;0.10;;;;;;;8.01;100.00;101930.63;5001426;28;20364;-76
2022/11/10 04:51:15;;;;;;;0.10;0.10;;;;;;;7.92;100.00;101930.16;5010568;28;20037;-73
2022/11/10 04:53:40;;;;;;;0.10;0.10;;;;;;;7.84;100.00;101928.78;5002542;28;20061;-76
2022/11/10 04:56:06;;;;;;;0.10;0.10;;;;;;;7.89;100.00;101927.63;5002638;28;20460;-74
2022/11/10 04:58:31;;;;;;;0.10;0.10;;;;;;;7.93;100.00;101949.72;5000064;28;20387;-74
2022/11/10 05:00:56;;;;;;;0.10;0.10;;;;;;;7.91;100.00;101940.91;5007806;28;20029;-74
2022/11/10 05:03:22;;;;;;;0.10;0.10;;;;;;;7.80;100.00;101941.44;5005983;28;20464;-73
2022/11/10 05:05:48;;;;;;;0.20;0.20;;;;;;;7.92;100.00;101954.22;5008020;28;20120;-74
2022/11/10 05:08:13;;;;;;;0.10;0.10;;;;;;;7.92;100.00;101935.50;5001873;28;20591;-72
2022/11/10 05:10:39;;;;;;;0.10;0.10;;;;;;;7.88;100.00;101943.72;5003226;28;20045;-76
2022/11/10 05:13:04;;;;;;;0.10;0.10;;;;;;;7.93;100.00;101955.06;4987233;28;20068;-77
2022/11/10 05:15:31;;;;;;;0.13;0.13;;;;;;;7.83;100.00;101946.63;5006371;28;20112;-74
2022/11/10 05:17:56;;;;;;;0.13;0.13;;;;;;;7.71;100.00;101939.19;5004724;28;20160;-74
2022/11/10 05:20:23;;;;;;;0.20;0.20;;;;;;;7.66;100.00;101907.34;5004507;28;20037;-73
2022/11/10 05:25:36;;;;;;;0.20;0.20;;;;;;;7.63;100.00;101940.44;5007983;28;20121;-76
2022/11/10 05:28:02;;;;;;;0.10;0.10;;;;;;;7.75;100.00;101952.34;5002263;28;20386;-73
2022/11/10 05:30:27;;;;;;;0.10;0.10;;;;;;;7.40;100.00;101920.16;5001295;28;20028;-74
2022/11/10 05:32:52;;;;;;;0.10;0.10;;;;;;;7.34;100.00;101936.47;5004722;28;20025;-73
2022/11/10 05:35:18;;;;;;;0.10;0.10;;;;;;;7.37;100.00;101941.66;5003160;28;20030;-80
2022/11/10 05:37:43;;;;;;;0.17;0.17;;;;;;;7.53;100.00;101941.81;5003599;28;20033;-79
2022/11/10 05:40:09;;;;;;;0.13;0.13;;;;;;;7.49;100.00;101958.94;5002859;28;20033;-69
2022/11/10 05:42:42;;;;;;;0.10;0.10;;;;;;;7.38;100.00;101947.91;5022629;28;20034;-72
2022/11/10 05:45:07;;;;;;;0.13;0.13;;;;;;;7.23;100.00;101923.59;5004845;28;20061;-72
2022/11/10 05:47:35;;;;;;;0.20;0.20;;;;;;;7.50;100.00;101944.63;5000349;28;20121;-71
2022/11/10 05:50:00;;;;;;;0.10;0.10;;;;;;;7.37;100.00;101960.38;5005783;28;20036;-74
2022/11/10 05:52:26;;;;;;;0.10;0.10;;;;;;;7.35;100.00;101952.44;4985952;28;20033;-75
2022/11/10 05:54:51;;;;;;;0.20;0.20;;;;;;;7.30;100.00;101953.56;5003285;28;20048;-73
2022/11/10 05:57:16;;;;;;;0.20;0.20;;;;;;;7.46;100.00;101981.34;5003979;28;20084;-74
2022/11/10 05:59:42;;;;;;;0.20;0.20;;;;;;;7.54;100.00;101980.13;5007731;28;20605;-74
2022/11/10 06:02:07;;;;;;;0.28;0.28;;;;;;;7.35;100.00;101987.16;5004694;28;20034;-73
2022/11/10 06:04:32;;;;;;;0.20;0.20;;;;;;;7.32;100.00;101973.94;5006686;28;20057;-73
2022/11/10 06:06:57;;;;;;;0.10;0.10;;;;;;;7.30;100.00;101974.94;5006475;28;20025;-74
2022/11/10 06:09:23;;;;;;;0.10;0.10;;;;;;;7.41;100.00;101993.19;5019017;28;20403;-72
2022/11/10 06:11:48;;;;;;;0.10;0.10;;;;;;;7.44;100.00;101996.56;5006315;28;20555;-74
2022/11/10 06:14:13;;;;;;;0.20;0.20;;;;;;;7.26;100.00;101986.72;5007003;28;20144;-73
2022/11/10 06:16:39;;;;;;;0.10;0.10;;;;;;;7.21;100.00;101997.59;5003384;28;20617;-79
2022/11/10 06:19:04;;;;;;;0.10;0.10;;;;;;;7.23;100.00;101997.56;5006982;28;20037;-74
2022/11/10 06:21:29;;;;;;;0.20;0.20;;;;;;;7.25;100.00;102011.72;5005603;28;20468;-76
2022/11/10 06:23:54;;;;;;;0.10;0.10;;;;;;;7.22;100.00;102006.50;5005616;28;20037;-73
2022/11/10 06:26:20;;;;;;;0.20;0.20;;;;;;;7.18;100.00;101997.72;5018652;28;20056;-74
2022/11/10 06:28:45;;;;;;;0.15;0.15;;;;;;;7.32;100.00;102011.34;5003111;28;20026;-76
2022/11/10 06:31:10;;;;;;;0.20;0.20;;;;;;;7.28;100.00;102007.09;5004689;28;20160;-76
2022/11/10 06:33:36;;;;;;;0.20;0.20;;;;;;;7.22;100.00;102012.69;5001167;28;20033;-73
2022/11/10 06:36:01;;;;;;;0.10;0.10;;;;;;;7.41;100.00;102018.06;5006987;28;20034;-73
2022/11/10 06:38:26;;;;;;;0.20;0.20;;;;;;;7.45;100.00;102014.34;5003994;28;20045;-71
2022/11/10 06:40:51;;;;;;;0.20;0.20;;;;;;;7.53;100.00;102029.16;5021661;28;20061;-74
2022/11/10 06:43:17;;;;;;;0.20;0.20;;;;;;;7.34;100.00;102043.34;4996547;28;20040;-74
2022/11/10 06:45:42;;;;;;;0.10;0.10;;;;;;;7.41;100.00;102049.28;5022518;28;20487;-72
2022/11/10 06:48:12;;;;;;;0.10;0.10;;;;;;;7.28;100.00;102049.81;4999210;28;20057;-72
2022/11/10 06:50:37;;;;;;;0.10;0.10;;;;;;;7.11;100.00;102057.72;5019321;28;20025;-75
2022/11/10 06:53:03;;;;;;;0.10;0.10;;;;;;;7.35;100.00;102063.78;5004685;28;20034;-72
2022/11/10 06:55:28;;;;;;;0.10;0.10;;;;;;;7.25;100.00;102076.66;5016736;28;20085;-74
2022/11/10 06:57:54;;;;;;;0.20;0.20;;;;;;;7.44;100.00;102076.72;5005004;28;20040;-72
2022/11/10 07:00:20;;;;;;;0.15;0.15;;;;;;;7.46;100.00;102073.97;5005034;28;20148;-74
2022/11/10 07:02:45;;;;;;;0.20;0.20;;;;;;;7.41;100.00;102087.56;5002468;28;20033;-75
2022/11/10 07:05:10;;;;;;;0.20;0.20;;;;;;;7.30;100.00;102063.09;5004751;28;20057;-75
2022/11/10 07:07:36;;;;;;;0.20;0.20;;;;;;;7.42;100.00;102089.28;5003449;28;20072;-74
2022/11/10 07:10:01;;;;;;;0.20;0.20;;;;;;;7.43;100.00;102088.34;5004755;28;20442;-75
2022/11/10 07:12:26;;;;;;;0.20;0.20;;;;;;;7.30;100.00;102071.13;5005780;28;20412;-72
2022/11/10 07:14:52;;;;;;;0.10;0.10;;;;;;;7.45;100.00;102090.94;5004446;28;20870;-76
2022/11/10 07:17:17;;;;;;;0.20;0.20;;;;;;;7.53;100.00;102098.66;5000599;28;20432;-72
2022/11/10 07:19:42;;;;;;;0.20;0.20;;;;;;;7.47;100.00;102111.34;5003125;28;20036;-75
2022/11/10 07:22:07;;;;;;;0.20;0.20;;;;;;;7.39;100.00;102093.91;5018589;28;20026;-78
2022/11/10 07:24:33;;;;;;;0.10;0.10;;;;;;;7.69;100.00;102125.53;5000447;28;20037;-74
2022/11/10 07:26:58;;;;;;;0.28;0.28;;;;;;;7.64;100.00;102113.25;5001396;28;20464;-75
2022/11/10 07:29:24;;;;;;;0.10;0.10;;;;;;;7.65;100.00;102124.81;5016794;28;20030;-77
2022/11/10 07:31:49;;;;;;;0.20;0.20;;;;;;;7.77;100.00;102151.00;5000526;28;20522;-74
2022/11/10 07:34:15;;;;;;;0.10;0.10;;;;;;;7.52;100.00;102110.28;5012214;28;20042;-77
2022/11/10 07:36:40;;;;;;;0.17;0.17;;;;;;;7.85;100.00;102141.75;5001515;28;20116;-73
2022/11/10 07:39:05;;;;;;;0.20;0.20;;;;;;;7.59;100.00;102117.94;5014159;28;20342;-76
2022/11/10 07:41:31;;;;;;;0.20;0.20;;;;;;;7.86;100.00;102122.97;5002608;28;20033;-71
2022/11/10 07:43:56;;;;;;;0.20;0.20;;;;;;;7.78;100.00;102120.66;5004654;28;20052;-75
2022/11/10 07:46:22;;;;;;;0.10;0.10;;;;;;;7.90;100.00;102134.38;5004812;28;20410;-73
2022/11/10 07:48:47;;;;;;;0.10;0.10;;;;;;;7.92;100.00;102121.81;5002214;28;20045;-71
2022/11/10 07:51:12;;;;;;;0.20;0.20;;;;;;;8.02;100.00;102140.97;5003016;28;20049;-72
2022/11/10 07:53:38;;;;;;;0.20;0.20;;;;;;;8.04;100.00;102131.06;5004149;28;20463;-72
2022/11/10 07:56:04;;;;;;;0.20;0.20;;;;;;;8.11;100.00;102137.88;5005929;28;20030;-73
2022/11/10 07:58:29;;;;;;;0.10;0.10;;;;;;;8.17;100.00;102123.34;5003390;28;20053;-78
2022/11/10 08:00:55;;;;;;;0.10;0.10;;;;;;;8.02;100.00;102124.94;5003708;28;20373;-73
2022/11/10 08:03:20;;;;;;;0.20;0.20;;;;;;;7.98;100.00;102123.31;4986031;28;20061;-79
2022/11/10 08:05:46;;;;;;;0.10;0.10;;;;;;;8.27;100.00;102156.75;4980417;28;20025;-77
2022/11/10 08:08:12;;;;;;;0.10;0.10;;;;;;;8.28;100.00;102142.44;5018079;28;20030;-74
2022/11/10 08:10:38;;;;;;;0.20;0.20;;;;;;;8.50;100.00;102169.06;4987699;28;20065;-78
2022/11/10 08:13:05;;;;;;;0.10;0.10;;;;;;;8.50;100.00;102168.22;5000133;28;20022;-74
2022/11/10 08:15:32;;;;;;;0.20;0.20;;;;;;;8.54;100.00;102165.31;4985896;28;20032;-75
2022/11/10 08:18:05;;;;;;;0.20;0.20;;;;;;;8.72;100.00;102188.59;5002286;28;20060;-73
2022/11/10 08:20:30;;;;;;;0.20;0.20;;;;;;;8.91;100.00;102194.78;5002958;28;20383;-75
2022/11/10 08:23:01;;;;;;;0.10;0.10;;;;;;;8.83;100.00;102195.16;5003187;28;20030;-76
2022/11/10 08:25:28;;;;;;;0.10;0.10;;;;;;;8.93;100.00;102187.53;5004617;28;20034;-74
2022/11/10 08:28:07;;;;;;;0.20;0.20;;;;;;;8.98;100.00;102179.28;4983812;28;20120;-72
2022/11/10 08:30:34;;;;;;;0.10;0.10;;;;;;;8.96;100.00;102179.34;5002610;28;20022;-79
2022/11/10 08:33:00;;;;;;;0.10;0.10;;;;;;;9.13;100.00;102189.22;4981453;28;20565;-77
2022/11/10 08:35:28;;;;;;;0.10;0.10;;;;;;;9.22;100.00;102195.94;5002978;28;20034;-76
2022/11/10 08:37:53;;;;;;;0.20;0.20;;;;;;;9.22;100.00;102184.38;5019461;28;20041;-74
2022/11/10 08:40:19;;;;;;;0.10;0.10;;;;;;;9.37;100.00;102180.03;5001300;28;20711;-74
2022/11/10 08:42:45;;;;;;;0.17;0.17;;;;;;;9.41;100.00;102184.28;4994879;28;20057;-75
2022/11/10 08:45:11;;;;;;;0.10;0.10;;;;;;;9.68;100.00;102186.47;4999753;28;20034;-77
2022/11/10 08:47:36;;;;;;;0.10;0.10;;;;;;;9.65;100.00;102194.69;5002390;28;20080;-76
2022/11/10 08:50:01;;;;;;;0.20;0.20;;;;;;;9.53;100.00;102178.28;4997303;28;20395;-78
2022/11/10 08:52:26;;;;;;;0.10;0.10;;;;;;;9.79;100.00;102212.75;5001123;28;20046;-76
2022/11/10 08:54:52;;;;;;;0.17;0.17;;;;;;;9.94;100.00;102203.00;5018977;28;20084;-77
2022/11/10 08:57:17;;;;;;;0.10;0.10;;;;;;;9.82;100.00;102169.63;5003599;28;20030;-77
2022/11/10 08:59:42;;;;;;;0.20;0.20;;;;;;;9.90;100.00;102211.22;5000778;28;20413;-83
2022/11/10 09:02:09;;;;;;;0.10;0.10;;;;;;;10.07;100.00;102225.53;5011705;28;20050;-75
2022/11/10 09:04:34;;;;;;;0.13;0.13;;;;;;;10.13;100.00;102222.53;5016210;28;20033;-76
2022/11/10 09:06:59;;;;;;;0.20;0.20;;;;;;;10.30;100.00;102220.75;5000856;28;20041;-76
2022/11/10 09:09:25;;;;;;;0.10;0.10;;;;;;;10.62;100.00;102223.50;4986192;28;20062;-75
2022/11/10 09:11:50;;;;;;;0.10;0.10;;;;;;;10.48;100.00;102194.75;5015793;28;20026;-74
2022/11/10 09:14:16;;;;;;;0.10;0.10;;;;;;;10.73;100.00;102209.47;5003646;28;20030;-78
2022/11/10 09:16:41;;;;;;;0.20;0.20;;;;;;;11.08;100.00;102220.88;5019317;28;20038;-73
2022/11/10 09:19:06;;;;;;;0.10;0.10;;;;;;;11.01;100.00;102191.75;5018116;28;20478;-74
2022/11/10 09:21:32;;;;;;;0.10;0.10;;;;;;;11.39;100.00;102234.34;4985823;28;20703;-74
2022/11/10 09:23:57;;;;;;;0.10;0.10;;;;;;;11.33;100.00;102226.66;5014790;28;20030;-75
2022/11/10 09:26:22;;;;;;;0.20;0.20;;;;;;;11.63;100.00;102260.75;5004657;28;20061;-72
2022/11/10 09:28:48;;;;;;;0.10;0.10;;;;;;;11.55;100.00;102207.41;5004028;28;20033;-73
2022/11/10 09:31:13;;;;;;;0.10;0.10;;;;;;;11.84;100.00;102243.31;5001059;28;20022;-75
2022/11/10 09:33:39;;;;;;;0.10;0.10;;;;;;;11.92;100.00;102242.00;5001156;28;20032;-76
2022/11/10 09:36:05;;;;;;;0.10;0.10;;;;;;;11.76;100.00;102207.06;5002169;28;20061;-73
2022/11/10 09:38:31;;;;;;;0.20;0.20;;;;;;;12.06;100.00;102215.09;4985196;28;20033;-76
2022/11/10 09:41:05;;;;;;;0.10;0.10;;;;;;;12.25;100.00;102249.81;5001019;28;20057;-75
2022/11/10 09:43:39;;;;;;;0.10;0.10;;;;;;;12.45;100.00;102253.94;4975872;28;20519;-75
2022/11/10 09:46:13;;;;;;;0.10;0.10;;;;;;;12.37;100.00;102258.97;5006890;28;20426;-76
2022/11/10 09:48:44;;;;;;;0.10;0.10;;;;;;;12.61;100.00;102266.44;5003963;28;20480;-75
2022/11/10 09:51:16;;;;;;;0.10;0.10;;;;;;;12.40;100.00;102239.91;4993622;28;20283;-75
2022/11/10 09:54:00;;;;;;;0.10;0.10;;;;;;;12.61;100.00;102258.38;5002949;28;20033;-74
2022/11/10 09:56:36;;;;;;;0.17;0.17;;;;;;;12.79;100.00;102253.63;5007673;28;20022;-75
2022/11/10 09:59:15;;;;;;;0.10;0.10;;;;;;;12.55;100.00;102247.97;4996693;28;20026;-75
2022/11/10 10:01:48;;;;;;;0.10;0.10;;;;;;;12.66;100.00;102258.94;5010020;28;20021;-73
2022/11/10 10:04:36;;;;;;;0.10;0.10;;;;;;;12.81;100.00;102230.13;4985985;28;20145;-74
2022/11/10 10:07:14;;;;;;;0.10;0.10;;;;;;;13.21;100.00;102232.03;5005971;28;20033;-73
2022/11/10 10:09:49;;;;;;;0.20;0.20;;;;;;;13.27;99.65;102242.38;5002883;28;20480;-73
2022/11/10 10:12:23;;;;;;;0.13;0.13;;;;;;;13.48;99.23;102239.25;5004240;28;20058;-76
2022/11/10 10:14:51;;;;;;;;;;;;;;;13.40;98.79;102280.19;5001335;28;20534;-74
2022/11/10 10:17:35;;;;;;;0.10;0.10;;;;;;;13.57;99.37;102284.47;5007481;28;20348;-75
2022/11/10 10:20:12;;;;;;;0.20;0.20;;;;;;;14.39;92.65;102289.66;5000070;28;20109;-72
2022/11/10 10:22:59;;;;;;;0.10;0.10;;;;;;;14.29;92.90;102288.56;4999465;28;20088;-77
2022/11/10 10:25:25;;;;;;;0.10;0.10;;;;;;;14.88;91.83;102286.22;5005427;28;20053;-75
2022/11/10 10:28:17;;;;;;;0.10;0.10;;;;;;;15.37;87.29;102292.56;5006253;28;20383;-72
2022/11/10 10:30:43;;;;;;;0.10;0.10;;;;;;;15.17;91.34;102286.81;4983688;28;20038;-80
2022/11/10 10:33:14;;;;;;;0.10;0.10;;;;;;;15.64;87.15;102291.44;5000666;28;20425;-79
2022/11/10 10:35:40;;;;;;;0.10;0.10;;;;;;;15.21;87.99;102291.00;5012367;28;20488;-75
2022/11/10 10:38:13;;;;;;;0.10;0.10;;;;;;;14.52;89.26;102267.16;4997235;28;20100;-76
2022/11/10 10:40:38;;;;;;;0.10;0.10;;;;;;;15.57;86.32;102302.72;5000228;28;20468;-73
2022/11/10 10:43:03;;;;;;;0.10;0.10;;;;;;;16.51;82.12;102295.59;5004268;28;20717;-76
2022/11/10 10:45:29;;;;;;;0.10;0.10;;;;;;;16.15;79.85;102309.22;5004269;28;20068;-78
2022/11/10 10:47:56;;;;;;;0.10;0.10;;;;;;;15.51;83.50;102296.94;5005334;28;20468;-75
2022/11/10 10:50:24;;;;;;;0.10;0.10;;;;;;;15.79;82.63;102335.44;5002725;28;20079;-73
2022/11/10 10:53:18;;;;;;;0.10;0.10;;;;;;;16.08;82.75;102329.66;5005505;28;20609;-76
2022/11/10 10:55:46;;;;;;;0.10;0.10;;;;;;;15.85;81.13;102311.44;4993701;28;20077;-77
2022/11/10 10:58:27;;;;;;;0.10;0.10;;;;;;;17.33;78.77;102329.66;4995275;28;20084;-75
2022/11/10 11:01:02;;;;;;;0.00;0.00;;;;;;;16.54;80.37;102327.88;5002414;28;20084;-74
2022/11/10 11:03:37;;;;;;;0.00;0.00;;;;;;;16.27;81.06;102335.34;5017434;28;20377;-71
2022/11/10 11:06:17;;;;;;;0.10;0.10;;;;;;;16.31;78.46;102331.41;4995412;28;20060;-74
2022/11/10 11:09:11;;;;;;;0.10;0.10;;;;;;;16.47;78.39;102311.22;4983090;28;20426;-77
2022/11/10 11:11:41;;;;;;;0.10;0.10;;;;;;;16.57;78.52;102306.78;5000888;28;20476;-78
2022/11/10 11:14:22;;;;;;;0.10;0.10;;;;;;;17.45;76.18;102316.91;5002620;28;20040;-75
2022/11/10 11:17:01;;;;;;;0.03;0.03;;;;;;;18.49;73.76;102322.50;4996039;28;20432;-74
2022/11/10 11:19:30;;;;;;;0.10;0.10;;;;;;;17.51;71.06;102303.66;5003939;28;20034;-74
2022/11/10 11:22:36;;;;;;;0.10;0.10;;;;;;;16.87;74.76;102317.97;5002866;28;20145;-79
2022/11/10 11:25:20;;;;;;;0.10;0.10;;;;;;;17.83;71.00;102319.06;4978829;28;20046;-76
2022/11/10 11:28:09;;;;;;;0.05;0.05;;;;;;;18.11;69.26;102283.28;5004235;28;20463;-75
2022/11/10 11:30:52;;;;;;;0.10;0.10;;;;;;;17.26;71.35;102314.84;5005308;28;20100;-79
2022/11/10 11:33:24;;;;;;;0.10;0.10;;;;;;;18.39;68.29;102303.44;5002833;28;20041;-77
2022/11/10 11:35:59;;;;;;;0.10;0.10;;;;;;;17.89;68.03;102327.69;5006267;28;20029;-76
2022/11/10 11:38:32;;;;;;;0.10;0.10;;;;;;;18.27;68.05;102332.56;4997391;28;20075;-74
2022/11/10 11:41:23;;;;;;;0.10;0.10;;;;;;;17.66;68.40;102331.38;4997995;28;20029;-73
2022/11/10 11:44:37;;;;;;;0.00;0.00;;;;;;;18.61;66.92;102338.75;5006499;28;20040;-73